createdAt,value
2022-08-11T00:01:45.367Z,2.40
2022-08-11T00:04:11.901Z,2.58
2022-08-11T00:06:38.771Z,2.88
2022-08-11T00:09:08.143Z,2.40
2022-08-11T00:11:36.180Z,2.40
2022-08-11T00:14:04.791Z,2.90
2022-08-11T00:16:31.349Z,2.80
2022-08-11T00:18:57.910Z,2.55
2022-08-11T00:22:01.825Z,2.63
2022-08-11T00:24:11.686Z,2.90
2022-08-11T00:26:38.347Z,2.45
2022-08-11T00:29:10.036Z,2.92
2022-08-11T00:31:36.611Z,2.70
2022-08-11T00:34:03.318Z,3.13
2022-08-11T00:36:38.645Z,2.72
2022-08-11T00:39:06.607Z,3.15
2022-08-11T00:41:36.439Z,3.33
2022-08-11T00:44:23.014Z,3.17
2022-08-11T00:46:56.127Z,3.30
2022-08-11T00:49:30.403Z,3.50
2022-08-11T00:52:06.937Z,3.63
2022-08-11T00:54:50.442Z,3.17
2022-08-11T00:57:36.065Z,3.17
2022-08-11T01:00:12.645Z,3.75
2022-08-11T01:02:45.063Z,3.25
2022-08-11T01:05:38.739Z,3.25
2022-08-11T01:08:36.368Z,3.33
2022-08-11T01:11:25.888Z,3.65
2022-08-11T01:14:34.015Z,3.08
2022-08-11T01:17:28.999Z,2.67
2022-08-11T01:20:46.667Z,3.05
2022-08-11T01:23:19.415Z,3.08
2022-08-11T01:26:09.698Z,3.22
2022-08-11T01:29:07.428Z,2.58
2022-08-11T01:32:04.505Z,3.30
2022-08-11T01:35:20.030Z,3.35
2022-08-11T01:38:38.308Z,3.00
2022-08-11T01:41:22.328Z,2.95
2022-08-11T01:44:04.227Z,3.00
2022-08-11T01:46:43.493Z,3.50
2022-08-11T01:50:05.974Z,2.72
2022-08-11T01:52:08.434Z,2.88
2022-08-11T01:54:40.166Z,2.63
2022-08-11T01:57:12.897Z,3.38
2022-08-11T01:59:41.040Z,2.63
2022-08-11T02:02:26.996Z,3.13
2022-08-11T02:04:56.479Z,2.90
2022-08-11T02:07:28.492Z,3.20
2022-08-11T02:10:00.757Z,3.15
2022-08-11T02:12:52.212Z,3.53
2022-08-11T02:15:26.765Z,3.08
2022-08-11T02:18:10.535Z,2.83
2022-08-11T02:20:41.842Z,3.10
2022-08-11T02:23:59.531Z,3.20
2022-08-11T02:26:06.202Z,3.40
2022-08-11T02:28:46.367Z,3.00
2022-08-11T02:32:05.139Z,3.00
2022-08-11T02:34:08.548Z,3.55
2022-08-11T02:36:38.445Z,3.13
2022-08-11T02:39:08.566Z,2.88
2022-08-11T02:41:38.299Z,3.90
2022-08-11T02:44:20.650Z,3.60
2022-08-11T02:46:51.586Z,3.25
2022-08-11T02:49:25.427Z,2.92
2022-08-11T02:52:07.014Z,3.15
2022-08-11T02:54:38.997Z,3.22
2022-08-11T02:57:11.331Z,2.97
2022-08-11T02:59:45.021Z,2.90
2022-08-11T03:02:15.583Z,2.95
2022-08-11T03:04:48.943Z,3.50
2022-08-11T03:07:28.508Z,3.10
2022-08-11T03:10:00.117Z,3.08
2022-08-11T03:12:34.356Z,3.00
2022-08-11T03:15:03.096Z,2.80
2022-08-11T03:17:32.157Z,3.20
2022-08-11T03:20:11.384Z,3.30
2022-08-11T03:22:47.262Z,3.08
2022-08-11T03:25:19.691Z,3.30
2022-08-11T03:27:50.625Z,2.97
2022-08-11T03:30:19.337Z,3.10
2022-08-11T03:32:56.998Z,3.17
2022-08-11T03:35:23.732Z,3.03
2022-08-11T03:37:52.194Z,3.42
2022-08-11T03:40:39.838Z,3.72
2022-08-11T03:43:11.791Z,4.20
2022-08-11T03:45:47.867Z,3.03
2022-08-11T03:48:18.203Z,3.90
2022-08-11T03:50:55.421Z,3.75
2022-08-11T03:53:44.549Z,3.47
2022-08-11T03:56:29.687Z,3.67
2022-08-11T03:59:18.718Z,3.78
2022-08-11T04:02:04.495Z,3.70
2022-08-11T04:05:24.870Z,3.83
2022-08-11T04:08:34.105Z,3.95
2022-08-11T04:11:21.743Z,3.30
2022-08-11T04:14:34.867Z,3.40
2022-08-11T04:17:22.733Z,3.63
2022-08-11T04:20:23.094Z,3.55
2022-08-11T04:23:11.523Z,3.90
2022-08-11T04:26:16.212Z,3.72
2022-08-11T04:28:55.363Z,3.67
2022-08-11T04:31:44.154Z,3.50
2022-08-11T04:34:36.659Z,3.40
2022-08-11T04:37:19.694Z,2.97
2022-08-11T04:40:31.298Z,3.45
2022-08-11T04:44:04.596Z,2.90
2022-08-11T04:46:44.753Z,2.90
2022-08-11T04:49:35.028Z,2.72
2022-08-11T04:52:22.915Z,3.00
2022-08-11T04:54:54.437Z,3.03
2022-08-11T04:57:27.060Z,3.30
2022-08-11T05:00:01.754Z,2.73
2022-08-11T05:03:04.627Z,2.75
2022-08-11T05:05:54.729Z,2.90
2022-08-11T05:08:53.176Z,2.72
2022-08-11T05:12:07.538Z,2.92
2022-08-11T05:14:34.954Z,2.95
2022-08-11T05:17:06.901Z,3.15
2022-08-11T05:19:33.504Z,3.05
2022-08-11T05:22:01.460Z,2.95
2022-08-11T05:24:31.030Z,3.25
2022-08-11T05:26:57.599Z,2.83
2022-08-11T05:29:29.061Z,3.15
2022-08-11T05:31:56.880Z,2.80
2022-08-11T05:34:25.302Z,2.83
2022-08-11T05:36:56.397Z,3.03
2022-08-11T05:39:36.330Z,3.53
2022-08-11T05:42:04.337Z,3.30
2022-08-11T05:44:30.900Z,3.15
2022-08-11T05:46:57.471Z,3.35
2022-08-11T05:49:24.199Z,3.20
2022-08-11T05:51:55.468Z,3.15
2022-08-11T05:54:28.962Z,2.63
2022-08-11T05:56:59.134Z,3.72
2022-08-11T05:59:25.873Z,3.55
2022-08-11T06:01:52.569Z,2.78
2022-08-11T06:04:20.405Z,3.45
2022-08-11T06:06:55.778Z,3.28
2022-08-11T06:09:29.140Z,3.17
2022-08-11T06:14:26.916Z,3.75
2022-08-11T06:16:56.267Z,3.78
2022-08-11T06:19:23.186Z,3.90
2022-08-11T06:21:49.832Z,3.42
2022-08-11T06:24:16.410Z,3.95
2022-08-11T06:27:09.223Z,3.58
2022-08-11T06:29:37.992Z,3.85
2022-08-11T06:32:14.839Z,3.22
2022-08-11T06:34:54.264Z,3.40
2022-08-11T06:37:24.981Z,4.35
2022-08-11T06:39:57.425Z,3.65
2022-08-11T06:42:34.145Z,4.20
2022-08-11T06:45:06.714Z,3.47
2022-08-11T06:47:33.290Z,3.27
2022-08-11T06:49:59.894Z,4.05
2022-08-11T06:52:35.246Z,4.00
2022-08-11T06:55:06.368Z,3.13
2022-08-11T06:57:33.700Z,3.47
2022-08-11T07:00:01.831Z,3.70
2022-08-11T07:02:31.286Z,3.58
2022-08-11T07:04:59.944Z,4.03
2022-08-11T07:07:42.154Z,3.38
2022-08-11T07:10:26.514Z,3.55
2022-08-11T07:12:53.045Z,3.55
2022-08-11T07:15:21.063Z,3.65
2022-08-11T07:17:50.245Z,3.30
2022-08-11T07:20:17.052Z,2.83
2022-08-11T07:22:46.026Z,2.97
2022-08-11T07:25:13.653Z,3.63
2022-08-11T07:27:42.591Z,3.83
2022-08-11T07:30:09.845Z,2.95
2022-08-11T07:32:41.841Z,3.25
2022-08-11T07:35:10.238Z,3.30
2022-08-11T07:37:36.817Z,3.42
2022-08-11T07:40:03.951Z,3.40
2022-08-11T07:42:31.718Z,3.22
2022-08-11T07:44:58.483Z,3.35
2022-08-11T07:47:25.138Z,3.40
2022-08-11T07:49:53.110Z,3.10
2022-08-11T07:52:19.754Z,3.13
2022-08-11T07:54:50.068Z,3.60
2022-08-11T07:58:12.743Z,3.65
2022-08-11T08:00:05.839Z,3.40
2022-08-11T08:02:32.586Z,3.85
2022-08-11T08:05:00.525Z,3.53
2022-08-11T08:07:27.154Z,3.70
2022-08-11T08:09:54.951Z,3.38
2022-08-11T08:12:22.256Z,3.13
2022-08-11T08:14:49.430Z,3.67
2022-08-11T08:17:16.053Z,3.08
2022-08-11T08:19:43.671Z,3.42
2022-08-11T08:22:39.088Z,3.40
2022-08-11T08:24:58.632Z,3.10
2022-08-11T08:27:25.483Z,3.22
2022-08-11T08:29:54.967Z,3.38
2022-08-11T08:32:21.821Z,3.38
2022-08-11T08:34:49.548Z,2.83
2022-08-11T08:37:45.685Z,3.33
2022-08-11T08:40:07.141Z,3.70
2022-08-11T08:42:44.997Z,3.30
2022-08-11T08:45:13.500Z,3.20
2022-08-11T08:47:43.272Z,3.13
2022-08-11T08:50:16.501Z,3.63
2022-08-11T08:52:50.132Z,2.95
2022-08-11T08:55:18.203Z,3.42
2022-08-11T08:57:45.240Z,3.38
2022-08-11T09:00:16.868Z,3.60
2022-08-11T09:02:46.215Z,4.00
2022-08-11T09:05:13.076Z,3.72
2022-08-11T09:07:40.906Z,3.55
2022-08-11T09:10:09.659Z,3.15
2022-08-11T09:12:38.866Z,3.30
2022-08-11T09:15:06.906Z,3.10
2022-08-11T09:17:34.642Z,3.22
2022-08-11T09:20:03.259Z,3.20
2022-08-11T09:22:31.713Z,3.20
2022-08-11T09:24:58.389Z,2.70
2022-08-11T09:27:26.422Z,2.70
2022-08-11T09:29:53.102Z,2.90
2022-08-11T09:32:20.070Z,2.70
2022-08-11T09:34:46.815Z,3.15
2022-08-11T09:37:13.458Z,2.90
2022-08-11T09:39:55.788Z,3.00
2022-08-11T09:42:23.460Z,2.92
2022-08-11T09:44:52.021Z,3.00
2022-08-11T09:47:20.486Z,2.83
2022-08-11T09:49:47.140Z,3.13
2022-08-11T09:52:13.758Z,2.78
2022-08-11T09:54:40.864Z,2.85
2022-08-11T09:57:07.628Z,2.33
2022-08-11T09:59:34.332Z,2.47
2022-08-11T10:02:03.559Z,2.90
2022-08-11T10:04:33.525Z,3.00
2022-08-11T10:07:00.352Z,2.63
2022-08-11T10:09:27.008Z,2.85
2022-08-11T10:11:57.938Z,2.47
2022-08-11T10:14:32.935Z,2.30
2022-08-11T10:17:04.166Z,3.03
2022-08-11T10:19:30.981Z,2.70
2022-08-11T10:21:57.628Z,2.88
2022-08-11T10:24:24.231Z,3.35
2022-08-11T10:26:51.111Z,2.72
2022-08-11T10:29:18.034Z,2.78
2022-08-11T10:31:57.077Z,2.90
2022-08-11T10:34:27.370Z,2.70
2022-08-11T10:36:55.768Z,2.65
2022-08-11T10:39:22.857Z,3.13
2022-08-11T10:42:02.082Z,2.92
2022-08-11T10:44:37.290Z,2.75
2022-08-11T10:47:04.383Z,2.67
2022-08-11T10:49:32.375Z,2.38
2022-08-11T10:51:59.120Z,2.58
2022-08-11T10:54:25.819Z,2.80
2022-08-11T10:56:52.474Z,2.60
2022-08-11T10:59:19.201Z,2.92
2022-08-11T11:01:45.967Z,3.72
2022-08-11T11:04:13.581Z,2.80
2022-08-11T11:06:49.293Z,4.82
2022-08-11T11:09:17.735Z,3.88
2022-08-11T11:11:47.146Z,6.65
2022-08-11T11:14:15.513Z,3.17
2022-08-11T11:16:44.088Z,2.78
2022-08-11T11:19:11.292Z,2.88
2022-08-11T11:21:38.459Z,3.00
2022-08-11T11:24:15.640Z,3.10
2022-08-11T11:29:35.997Z,2.92
2022-08-11T11:32:19.803Z,2.47
2022-08-11T11:34:58.118Z,3.97
2022-08-11T11:37:24.722Z,2.20
2022-08-11T11:39:53.215Z,2.75
2022-08-11T11:42:20.003Z,2.60
2022-08-11T11:44:46.654Z,2.55
2022-08-11T11:47:13.333Z,2.95
2022-08-11T11:49:41.167Z,2.90
2022-08-11T11:52:08.267Z,2.40
2022-08-11T11:54:35.001Z,2.53
2022-08-11T11:57:03.360Z,2.53
2022-08-11T11:59:30.097Z,2.50
2022-08-11T12:01:56.730Z,3.00
2022-08-11T12:04:23.390Z,2.58
2022-08-11T12:06:50.019Z,2.38
2022-08-11T12:09:16.623Z,2.72
2022-08-11T12:11:43.593Z,2.45
2022-08-11T12:14:11.943Z,2.55
2022-08-11T12:16:39.754Z,2.28
2022-08-11T12:19:07.898Z,2.90
2022-08-11T12:21:34.984Z,2.97
2022-08-11T12:24:04.485Z,2.50
2022-08-11T12:26:31.273Z,2.42
2022-08-11T12:28:57.940Z,2.45
2022-08-11T12:31:26.023Z,2.95
2022-08-11T12:33:52.698Z,2.22
2022-08-11T12:36:19.402Z,2.50
2022-08-11T12:38:48.583Z,2.90
2022-08-11T12:41:18.637Z,3.00
2022-08-11T12:43:45.890Z,2.40
2022-08-11T12:46:24.482Z,2.65
2022-08-11T12:49:01.237Z,2.60
2022-08-11T12:51:30.928Z,2.55
2022-08-11T12:54:21.440Z,3.05
2022-08-11T12:56:49.132Z,2.70
2022-08-11T12:59:15.747Z,2.45
2022-08-11T13:01:42.973Z,2.40
2022-08-11T13:04:10.984Z,2.60
2022-08-11T13:06:37.688Z,2.65
2022-08-11T13:09:04.460Z,2.45
2022-08-11T13:11:57.017Z,2.53
2022-08-11T13:14:17.768Z,2.40
2022-08-11T13:16:44.636Z,2.35
2022-08-11T13:19:12.663Z,2.35
2022-08-11T13:21:39.340Z,2.50
2022-08-11T13:24:06.417Z,2.83
2022-08-11T13:26:46.905Z,2.42
2022-08-11T13:29:21.001Z,2.13
2022-08-11T13:31:47.737Z,2.40
2022-08-11T13:34:16.764Z,2.13
2022-08-11T13:36:43.538Z,2.22
2022-08-11T13:39:10.234Z,2.58
2022-08-11T13:41:37.102Z,2.38
2022-08-11T13:44:04.292Z,2.72
2022-08-11T13:46:30.964Z,2.50
2022-08-11T13:49:00.419Z,2.78
2022-08-11T13:51:34.216Z,2.85
2022-08-11T13:54:03.223Z,3.10
2022-08-11T13:56:29.873Z,2.60
2022-08-11T13:58:56.703Z,2.33
2022-08-11T14:02:22.404Z,2.45
2022-08-11T14:04:30.614Z,2.40
2022-08-11T14:07:00.436Z,3.33
2022-08-11T14:09:28.379Z,2.22
2022-08-11T14:12:20.520Z,2.15
2022-08-11T14:14:44.274Z,2.47
2022-08-11T14:17:10.935Z,2.63
2022-08-11T14:19:40.469Z,2.40
2022-08-11T14:22:08.783Z,2.33
2022-08-11T14:24:36.840Z,2.15
2022-08-11T14:27:04.100Z,2.40
2022-08-11T14:29:30.798Z,2.28
2022-08-11T14:31:58.640Z,2.15
2022-08-11T14:34:26.170Z,2.72
2022-08-11T14:36:53.816Z,2.25
2022-08-11T14:39:23.092Z,2.10
2022-08-11T14:42:10.961Z,2.10
2022-08-11T14:44:37.873Z,2.08
2022-08-11T14:47:04.937Z,2.30
2022-08-11T14:50:09.469Z,2.13
2022-08-11T14:52:38.175Z,2.20
2022-08-11T14:55:07.228Z,2.38
2022-08-11T14:57:55.044Z,2.45
2022-08-11T15:00:23.354Z,2.42
2022-08-11T15:02:50.080Z,1.90
2022-08-11T15:05:16.756Z,2.42
2022-08-11T15:07:43.378Z,2.58
2022-08-11T15:10:13.520Z,2.30
2022-08-11T15:12:40.722Z,2.22
2022-08-11T15:15:08.285Z,2.55
2022-08-11T15:17:42.753Z,2.45
2022-08-11T15:20:12.346Z,1.95
2022-08-11T15:22:39.263Z,1.88
2022-08-11T15:25:06.613Z,2.38
2022-08-11T15:27:34.724Z,2.03
2022-08-11T15:30:02.080Z,2.20
2022-08-11T15:32:28.774Z,1.80
2022-08-11T15:34:59.434Z,2.05
2022-08-11T15:37:30.090Z,2.30
2022-08-11T15:40:02.768Z,2.10
2022-08-11T15:42:29.481Z,2.13
2022-08-11T15:45:02.557Z,1.92
2022-08-11T15:47:36.047Z,1.80
2022-08-11T15:50:10.673Z,1.92
2022-08-11T15:52:44.455Z,1.70
2022-08-11T15:55:11.171Z,1.60
2022-08-11T15:57:39.513Z,2.20
2022-08-11T16:00:09.836Z,1.77
2022-08-11T16:02:36.455Z,1.70
2022-08-11T16:05:06.060Z,1.80
2022-08-11T16:07:34.241Z,1.65
2022-08-11T16:10:05.771Z,1.73
2022-08-11T16:12:37.397Z,1.75
2022-08-11T16:15:05.517Z,1.58
2022-08-11T16:17:34.657Z,1.60
2022-08-11T16:20:01.421Z,3.95
2022-08-11T16:22:29.324Z,1.60
2022-08-11T16:27:03.157Z,6.22
2022-08-11T16:27:47.306Z,1.70
2022-08-11T16:30:14.061Z,1.60
2022-08-11T16:32:44.377Z,1.45
2022-08-11T16:35:13.322Z,1.50
2022-08-11T16:37:40.223Z,1.15
2022-08-11T16:40:07.946Z,1.20
2022-08-11T16:43:04.585Z,1.30
2022-08-11T16:45:21.524Z,1.23
2022-08-11T16:48:02.083Z,1.60
2022-08-11T16:50:30.359Z,1.38
2022-08-11T16:52:57.038Z,1.20
2022-08-11T16:55:51.339Z,1.55
2022-08-11T16:58:10.554Z,1.40
2022-08-11T17:00:37.256Z,1.27
2022-08-11T17:03:05.340Z,1.30
2022-08-11T17:05:33.062Z,1.35
2022-08-11T17:08:02.207Z,1.40
2022-08-11T17:10:40.061Z,1.50
2022-08-11T17:13:16.919Z,1.60
2022-08-11T17:15:45.748Z,1.30
2022-08-11T17:18:18.959Z,1.48
2022-08-11T17:20:45.841Z,1.42
2022-08-11T17:23:13.014Z,1.30
2022-08-11T17:26:03.027Z,1.35
2022-08-11T17:28:26.773Z,1.30
2022-08-11T17:30:53.451Z,1.50
2022-08-11T17:33:21.469Z,1.45
2022-08-11T17:35:48.203Z,1.60
2022-08-11T17:38:15.807Z,1.55
2022-08-11T17:40:43.819Z,1.30
2022-08-11T17:43:10.452Z,1.50
2022-08-11T17:45:37.397Z,1.40
2022-08-11T17:48:04.642Z,1.55
2022-08-11T17:50:32.622Z,1.20
2022-08-11T17:52:59.337Z,1.65
2022-08-11T17:55:52.362Z,1.65
2022-08-11T17:58:13.339Z,1.50
2022-08-11T18:00:39.975Z,1.75
2022-08-11T18:03:06.584Z,2.00
2022-08-11T18:05:35.902Z,1.55
2022-08-11T18:08:03.886Z,2.03
2022-08-11T18:10:33.100Z,1.58
2022-08-11T18:13:02.265Z,1.13
2022-08-11T18:15:31.825Z,1.70
2022-08-11T18:17:58.726Z,2.22
2022-08-11T18:20:25.478Z,2.38
2022-08-11T18:22:53.476Z,2.08
2022-08-11T18:25:21.535Z,2.00
2022-08-11T18:27:48.530Z,2.50
2022-08-11T18:30:15.252Z,2.28
2022-08-11T18:32:49.527Z,1.92
2022-08-11T18:35:17.042Z,1.95
2022-08-11T18:37:45.430Z,1.85
2022-08-11T18:40:16.296Z,1.67
2022-08-11T18:42:43.648Z,2.33
2022-08-11T18:45:11.969Z,2.28
2022-08-11T18:47:38.687Z,1.77
2022-08-11T18:50:08.295Z,2.00
2022-08-11T18:52:38.714Z,1.90
2022-08-11T18:55:08.111Z,2.05
2022-08-11T18:57:53.863Z,1.73
2022-08-11T19:00:21.733Z,1.90
2022-08-11T19:02:49.922Z,1.52
2022-08-11T19:05:17.801Z,2.00
2022-08-11T19:07:44.899Z,1.92
2022-08-11T19:10:11.510Z,1.70
2022-08-11T19:12:41.307Z,1.50
2022-08-11T19:15:08.430Z,2.00
2022-08-11T19:17:44.080Z,2.40
2022-08-11T19:20:13.884Z,2.42
2022-08-11T19:22:40.836Z,2.00
2022-08-11T19:25:08.099Z,2.17
2022-08-11T19:27:34.673Z,2.05
2022-08-11T19:30:13.419Z,1.95
2022-08-11T19:32:40.894Z,1.80
2022-08-11T19:35:07.857Z,1.88
2022-08-11T19:37:34.459Z,2.42
2022-08-11T19:40:11.353Z,2.10
2022-08-11T19:42:38.141Z,2.00
2022-08-11T19:45:06.483Z,2.10
2022-08-11T19:47:33.224Z,1.95
2022-08-11T19:49:59.911Z,2.10
2022-08-11T19:52:26.665Z,1.92
2022-08-11T19:54:53.388Z,2.45
2022-08-11T19:57:20.155Z,2.20
2022-08-11T19:59:46.769Z,2.05
2022-08-11T20:02:15.015Z,2.38
2022-08-11T20:04:41.876Z,2.75
2022-08-11T20:07:08.624Z,2.13
2022-08-11T20:10:05.361Z,2.20
2022-08-11T20:12:24.193Z,1.88
2022-08-11T20:14:51.203Z,2.17
2022-08-11T20:17:19.283Z,2.05
2022-08-11T20:19:55.094Z,2.38
2022-08-11T20:22:22.372Z,2.40
2022-08-11T20:24:49.148Z,2.03
2022-08-11T20:27:18.582Z,2.13
2022-08-11T20:29:50.903Z,2.40
2022-08-11T20:32:18.921Z,2.30
2022-08-11T20:34:45.584Z,2.00
2022-08-11T20:37:12.148Z,2.00
2022-08-11T20:39:38.944Z,2.05
2022-08-11T20:42:05.785Z,2.20
2022-08-11T20:44:32.399Z,2.33
2022-08-11T20:46:59.003Z,2.22
2022-08-11T20:49:27.571Z,2.50
2022-08-11T20:52:11.105Z,2.05
2022-08-11T20:54:43.726Z,2.38
2022-08-11T20:59:59.204Z,1.80
2022-08-11T21:02:26.678Z,2.45
2022-08-11T21:04:55.381Z,1.83
2022-08-11T21:07:27.945Z,1.90
2022-08-11T21:10:00.800Z,2.00
2022-08-11T21:12:37.018Z,2.17
2022-08-11T21:15:04.807Z,2.25
2022-08-11T21:17:33.046Z,2.17
2022-08-11T21:20:07.986Z,2.35
2022-08-11T21:22:59.547Z,2.10
2022-08-11T21:25:30.725Z,1.98
2022-08-11T21:27:59.117Z,1.95
2022-08-11T21:30:26.144Z,2.08
2022-08-11T21:32:52.894Z,2.10
2022-08-11T21:35:20.916Z,2.10
2022-08-11T21:37:48.538Z,1.58
2022-08-11T21:40:17.456Z,2.05
2022-08-11T21:42:45.008Z,2.03
2022-08-11T21:45:11.582Z,2.13
2022-08-11T21:47:42.978Z,2.30
2022-08-11T21:50:10.682Z,2.10
2022-08-11T21:52:38.840Z,2.33
2022-08-11T21:55:05.951Z,2.00
2022-08-11T21:57:32.492Z,2.20
2022-08-11T21:59:59.631Z,2.03
2022-08-11T22:02:26.403Z,2.15
2022-08-11T22:04:52.930Z,2.13
2022-08-11T22:07:19.577Z,2.05
2022-08-11T22:09:47.770Z,1.92
2022-08-11T22:12:33.403Z,2.00
2022-08-11T22:15:00.888Z,1.83
2022-08-11T22:17:27.753Z,2.17
2022-08-11T22:19:54.390Z,2.40
2022-08-11T22:22:21.219Z,1.85
2022-08-11T22:24:54.288Z,2.85
2022-08-11T22:27:20.883Z,2.20
2022-08-11T22:29:50.605Z,3.03
2022-08-11T22:32:17.976Z,1.80
2022-08-11T22:34:52.857Z,2.15
2022-08-11T22:37:27.085Z,2.28
2022-08-11T22:39:59.557Z,2.13
2022-08-11T22:42:32.246Z,2.03
2022-08-11T22:45:00.701Z,2.42
2022-08-11T22:47:27.498Z,2.10
2022-08-11T22:50:10.297Z,2.03
2022-08-11T22:52:36.879Z,2.15
2022-08-11T22:55:05.933Z,2.33
2022-08-11T22:57:35.671Z,2.42
2022-08-11T23:00:02.288Z,2.30
2022-08-11T23:02:28.857Z,2.25
2022-08-11T23:04:55.491Z,2.28
2022-08-11T23:07:50.248Z,2.78
2022-08-11T23:10:10.382Z,2.20
2022-08-11T23:12:37.967Z,2.22
2022-08-11T23:15:05.467Z,2.08
2022-08-11T23:17:32.059Z,2.45
2022-08-11T23:20:08.649Z,2.13
2022-08-11T23:22:49.863Z,2.38
2022-08-11T23:25:18.735Z,1.85
2022-08-11T23:27:45.440Z,2.20
2022-08-11T23:30:12.278Z,2.55
2022-08-11T23:32:39.036Z,2.50
2022-08-11T23:35:38.564Z,2.40
2022-08-11T23:37:52.800Z,2.10
2022-08-11T23:40:20.751Z,2.65
2022-08-11T23:42:49.781Z,2.45
2022-08-11T23:45:22.286Z,2.58
2022-08-11T23:47:50.547Z,2.30
2022-08-11T23:50:17.543Z,2.72
2022-08-11T23:52:44.177Z,2.30
2022-08-11T23:55:10.801Z,2.42
2022-08-11T23:57:47.701Z,2.28
